sensor_id;sensor_type;location;lat;lon;timestamp;pressure;altitude;pressure_sealevel;temperature;humidity
7480;BME280;3781;42.272;22.658;2023-07-30T00:02:06;94321.69;;;18.02;nan
7480;BME280;3781;42.272;22.658;2023-07-30T00:04:34;94317.56;;;18.15;nan
7480;BME280;3781;42.272;22.658;2023-07-30T00:07:01;94321.38;;;18.12;nan
7480;BME280;3781;42.272;22.658;2023-07-30T00:09:28;94315.44;;;18.25;nan
7480;BME280;3781;42.272;22.658;2023-07-30T00:11:54;94315.44;;;18.25;nan
7480;BME280;3781;42.272;22.658;2023-07-30T00:14:21;94282.97;;;18.11;nan
7480;BME280;3781;42.272;22.658;2023-07-30T00:16:49;94316.56;;;18.16;nan
7480;BME280;3781;42.272;22.658;2023-07-30T00:19:15;94315.75;;;18.15;nan
7480;BME280;3781;42.272;22.658;2023-07-30T00:21:43;94292.94;;;17.80;nan
7480;BME280;3781;42.272;22.658;2023-07-30T00:24:12;94293.94;;;17.64;nan
7480;BME280;3781;42.272;22.658;2023-07-30T00:26:38;94315.06;;;17.42;nan
7480;BME280;3781;42.272;22.658;2023-07-30T00:29:05;94317.53;;;17.28;nan
7480;BME280;3781;42.272;22.658;2023-07-30T00:31:32;94318.06;;;17.24;nan
7480;BME280;3781;42.272;22.658;2023-07-30T00:33:58;94313.16;;;17.21;nan
7480;BME280;3781;42.272;22.658;2023-07-30T00:36:25;94283.41;;;16.99;nan
7480;BME280;3781;42.272;22.658;2023-07-30T00:38:53;94311.91;;;17.17;nan
7480;BME280;3781;42.272;22.658;2023-07-30T00:41:20;94309.97;;;17.40;nan
7480;BME280;3781;42.272;22.658;2023-07-30T00:43:47;94317.50;;;17.58;nan
7480;BME280;3781;42.272;22.658;2023-07-30T00:46:13;94262.63;;;17.48;nan
7480;BME280;3781;42.272;22.658;2023-07-30T00:48:40;94307.69;;;17.81;nan
7480;BME280;3781;42.272;22.658;2023-07-30T00:51:07;94308.81;;;17.72;nan
7480;BME280;3781;42.272;22.658;2023-07-30T00:53:35;94221.63;;;17.11;nan
7480;BME280;3781;42.272;22.658;2023-07-30T00:56:06;94199.91;;;17.03;nan
7480;BME280;3781;42.272;22.658;2023-07-30T00:58:33;94250.97;;;17.36;nan
7480;BME280;3781;42.272;22.658;2023-07-30T01:01:00;94296.59;;;17.64;nan
7480;BME280;3781;42.272;22.658;2023-07-30T01:03:27;94285.56;;;17.54;nan
7480;BME280;3781;42.272;22.658;2023-07-30T01:05:54;94259.78;;;17.28;nan
7480;BME280;3781;42.272;22.658;2023-07-30T01:08:21;94314.06;;;17.28;nan
7480;BME280;3781;42.272;22.658;2023-07-30T01:10:48;94311.44;;;16.99;nan
7480;BME280;3781;42.272;22.658;2023-07-30T01:13:16;94309.91;;;16.90;nan
7480;BME280;3781;42.272;22.658;2023-07-30T01:15:44;94312.88;;;16.87;nan
7480;BME280;3781;42.272;22.658;2023-07-30T01:18:11;94309.97;;;16.82;nan
7480;BME280;3781;42.272;22.658;2023-07-30T01:20:38;94315.94;;;16.76;nan
7480;BME280;3781;42.272;22.658;2023-07-30T01:23:06;94306.31;;;16.68;nan
7480;BME280;3781;42.272;22.658;2023-07-30T01:25:36;94321.19;;;16.76;nan
7480;BME280;3781;42.272;22.658;2023-07-30T01:28:04;94285.31;;;16.53;nan
7480;BME280;3781;42.272;22.658;2023-07-30T01:30:36;94317.41;;;16.93;nan
7480;BME280;3781;42.272;22.658;2023-07-30T01:33:05;94317.06;;;16.96;nan
7480;BME280;3781;42.272;22.658;2023-07-30T01:35:32;94304.91;;;16.95;nan
7480;BME280;3781;42.272;22.658;2023-07-30T01:38:01;94331.34;;;17.08;nan
7480;BME280;3781;42.272;22.658;2023-07-30T01:40:32;94303.41;;;17.00;nan
7480;BME280;3781;42.272;22.658;2023-07-30T01:42:59;94322.59;;;17.15;nan
7480;BME280;3781;42.272;22.658;2023-07-30T01:45:25;94323.84;;;17.19;nan
7480;BME280;3781;42.272;22.658;2023-07-30T01:47:52;94326.66;;;17.18;nan
7480;BME280;3781;42.272;22.658;2023-07-30T01:50:19;94319.03;;;16.94;nan
7480;BME280;3781;42.272;22.658;2023-07-30T01:52:46;94323.72;;;16.84;nan
7480;BME280;3781;42.272;22.658;2023-07-30T01:55:12;94316.38;;;16.65;nan
7480;BME280;3781;42.272;22.658;2023-07-30T01:57:40;94267.84;;;16.09;nan
7480;BME280;3781;42.272;22.658;2023-07-30T02:00:08;94312.00;;;16.34;nan
7480;BME280;3781;42.272;22.658;2023-07-30T02:02:35;94299.00;;;16.18;nan
7480;BME280;3781;42.272;22.658;2023-07-30T02:05:02;94319.22;;;16.32;nan
7480;BME280;3781;42.272;22.658;2023-07-30T02:07:28;94319.00;;;16.19;nan
7480;BME280;3781;42.272;22.658;2023-07-30T02:09:55;94292.22;;;16.09;nan
7480;BME280;3781;42.272;22.658;2023-07-30T02:12:22;94301.28;;;16.21;nan
7480;BME280;3781;42.272;22.658;2023-07-30T02:14:50;94324.28;;;16.34;nan
7480;BME280;3781;42.272;22.658;2023-07-30T02:17:17;94322.06;;;16.45;nan
7480;BME280;3781;42.272;22.658;2023-07-30T02:19:44;94322.84;;;16.54;nan
7480;BME280;3781;42.272;22.658;2023-07-30T02:22:10;94329.75;;;16.55;nan
7480;BME280;3781;42.272;22.658;2023-07-30T02:24:37;94328.53;;;16.57;nan
7480;BME280;3781;42.272;22.658;2023-07-30T02:27:04;94287.13;;;16.30;nan
7480;BME280;3781;42.272;22.658;2023-07-30T02:29:31;94329.19;;;16.59;nan
7480;BME280;3781;42.272;22.658;2023-07-30T02:31:59;94333.44;;;16.61;nan
7480;BME280;3781;42.272;22.658;2023-07-30T02:34:26;94269.28;;;16.11;nan
7480;BME280;3781;42.272;22.658;2023-07-30T02:36:53;94332.44;;;16.16;nan
7480;BME280;3781;42.272;22.658;2023-07-30T02:39:19;94328.78;;;16.03;nan
7480;BME280;3781;42.272;22.658;2023-07-30T02:41:47;94333.19;;;16.02;nan
7480;BME280;3781;42.272;22.658;2023-07-30T02:44:13;94332.81;;;16.13;nan
7480;BME280;3781;42.272;22.658;2023-07-30T02:46:40;94275.03;;;15.84;nan
7480;BME280;3781;42.272;22.658;2023-07-30T02:49:08;94339.09;;;16.04;nan
7480;BME280;3781;42.272;22.658;2023-07-30T02:51:35;94330.13;;;15.68;nan
7480;BME280;3781;42.272;22.658;2023-07-30T02:54:04;94326.34;;;15.24;nan
7480;BME280;3781;42.272;22.658;2023-07-30T02:56:31;94337.81;;;15.15;nan
7480;BME280;3781;42.272;22.658;2023-07-30T02:58:58;94333.69;;;15.28;nan
7480;BME280;3781;42.272;22.658;2023-07-30T03:01:25;94296.16;;;15.05;nan
7480;BME280;3781;42.272;22.658;2023-07-30T03:03:51;94279.19;;;15.01;nan
7480;BME280;3781;42.272;22.658;2023-07-30T03:06:19;94302.78;;;15.32;nan
7480;BME280;3781;42.272;22.658;2023-07-30T03:08:46;94338.88;;;15.52;nan
7480;BME280;3781;42.272;22.658;2023-07-30T03:11:13;94344.78;;;15.46;nan
7480;BME280;3781;42.272;22.658;2023-07-30T03:13:40;94349.69;;;15.41;nan
7480;BME280;3781;42.272;22.658;2023-07-30T03:16:06;94350.88;;;15.23;nan
7480;BME280;3781;42.272;22.658;2023-07-30T03:18:33;94297.84;;;14.90;nan
7480;BME280;3781;42.272;22.658;2023-07-30T03:21:00;94352.84;;;15.21;nan
7480;BME280;3781;42.272;22.658;2023-07-30T03:23:28;94349.91;;;15.24;nan
7480;BME280;3781;42.272;22.658;2023-07-30T03:25:55;94343.97;;;15.46;nan
7480;BME280;3781;42.272;22.658;2023-07-30T03:28:22;94338.69;;;15.54;nan
7480;BME280;3781;42.272;22.658;2023-07-30T03:30:48;94355.09;;;15.48;nan
7480;BME280;3781;42.272;22.658;2023-07-30T03:33:15;94305.88;;;14.80;nan
7480;BME280;3781;42.272;22.658;2023-07-30T03:35:42;94304.97;;;14.41;nan
7480;BME280;3781;42.272;22.658;2023-07-30T03:38:08;94296.78;;;14.20;nan
7480;BME280;3781;42.272;22.658;2023-07-30T03:40:37;94343.00;;;14.44;nan
7480;BME280;3781;42.272;22.658;2023-07-30T03:43:03;94245.84;;;14.00;nan
7480;BME280;3781;42.272;22.658;2023-07-30T03:45:30;94352.78;;;14.82;nan
7480;BME280;3781;42.272;22.658;2023-07-30T03:47:58;94357.34;;;14.96;nan
7480;BME280;3781;42.272;22.658;2023-07-30T03:50:25;94353.38;;;15.08;nan
7480;BME280;3781;42.272;22.658;2023-07-30T03:52:51;94361.00;;;15.26;nan
7480;BME280;3781;42.272;22.658;2023-07-30T03:55:18;94358.34;;;15.42;nan
7480;BME280;3781;42.272;22.658;2023-07-30T03:57:46;94367.13;;;15.65;nan
7480;BME280;3781;42.272;22.658;2023-07-30T04:00:13;94374.84;;;15.89;nan
7480;BME280;3781;42.272;22.658;2023-07-30T04:02:39;94370.81;;;16.09;nan
7480;BME280;3781;42.272;22.658;2023-07-30T04:05:06;94375.25;;;16.31;nan
7480;BME280;3781;42.272;22.658;2023-07-30T04:07:33;94376.13;;;16.46;nan
7480;BME280;3781;42.272;22.658;2023-07-30T04:10:00;94340.75;;;16.42;nan
7480;BME280;3781;42.272;22.658;2023-07-30T04:12:26;94378.88;;;16.76;nan
7480;BME280;3781;42.272;22.658;2023-07-30T04:14:54;94378.75;;;16.92;nan
7480;BME280;3781;42.272;22.658;2023-07-30T04:17:21;94337.47;;;16.86;nan
7480;BME280;3781;42.272;22.658;2023-07-30T04:19:48;94356.88;;;17.14;nan
7480;BME280;3781;42.272;22.658;2023-07-30T04:22:15;94378.97;;;17.34;nan
7480;BME280;3781;42.272;22.658;2023-07-30T04:24:41;94370.09;;;17.35;nan
7480;BME280;3781;42.272;22.658;2023-07-30T04:27:08;94265.19;;;16.69;nan
7480;BME280;3781;42.272;22.658;2023-07-30T04:29:35;94378.09;;;17.56;nan
7480;BME280;3781;42.272;22.658;2023-07-30T04:32:03;94383.16;;;17.72;nan
7480;BME280;3781;42.272;22.658;2023-07-30T04:34:30;94366.91;;;17.83;nan
7480;BME280;3781;42.272;22.658;2023-07-30T04:36:57;94345.66;;;17.78;nan
7480;BME280;3781;42.272;22.658;2023-07-30T04:39:23;94389.13;;;18.31;nan
7480;BME280;3781;42.272;22.658;2023-07-30T04:41:50;94385.84;;;18.65;nan
7480;BME280;3781;42.272;22.658;2023-07-30T04:44:17;94384.13;;;19.00;nan
7480;BME280;3781;42.272;22.658;2023-07-30T04:46:44;94389.28;;;19.35;nan
7480;BME280;3781;42.272;22.658;2023-07-30T04:49:12;94353.88;;;19.44;nan
7480;BME280;3781;42.272;22.658;2023-07-30T04:51:39;94383.91;;;19.91;nan
7480;BME280;3781;42.272;22.658;2023-07-30T04:54:05;94384.81;;;20.11;nan
7480;BME280;3781;42.272;22.658;2023-07-30T04:56:32;94392.63;;;20.32;nan
7480;BME280;3781;42.272;22.658;2023-07-30T04:59:00;94357.34;;;20.33;nan
7480;BME280;3781;42.272;22.658;2023-07-30T05:01:27;94385.41;;;20.86;nan
7480;BME280;3781;42.272;22.658;2023-07-30T05:03:54;94313.94;;;20.68;nan
7480;BME280;3781;42.272;22.658;2023-07-30T05:06:22;94393.97;;;21.47;nan
7480;BME280;3781;42.272;22.658;2023-07-30T05:08:49;94384.56;;;21.71;nan
7480;BME280;3781;42.272;22.658;2023-07-30T05:11:16;94385.78;;;21.88;nan
7480;BME280;3781;42.272;22.658;2023-07-30T05:13:42;94376.44;;;21.92;nan
7480;BME280;3781;42.272;22.658;2023-07-30T05:16:09;94387.00;;;22.36;nan
7480;BME280;3781;42.272;22.658;2023-07-30T05:18:36;94386.69;;;22.58;nan
7480;BME280;3781;42.272;22.658;2023-07-30T05:21:03;94390.66;;;22.80;nan
7480;BME280;3781;42.272;22.658;2023-07-30T05:23:31;94385.63;;;23.03;nan
7480;BME280;3781;42.272;22.658;2023-07-30T05:25:57;94365.56;;;23.13;nan
7480;BME280;3781;42.272;22.658;2023-07-30T05:28:24;94390.94;;;23.52;nan
7480;BME280;3781;42.272;22.658;2023-07-30T05:30:51;94344.84;;;23.53;nan
7480;BME280;3781;42.272;22.658;2023-07-30T05:33:18;94380.09;;;24.15;nan
7480;BME280;3781;42.272;22.658;2023-07-30T05:35:44;94311.81;;;24.04;nan
7480;BME280;3781;42.272;22.658;2023-07-30T05:38:13;94380.41;;;24.25;nan
7480;BME280;3781;42.272;22.658;2023-07-30T05:40:41;94399.69;;;24.32;nan
7480;BME280;3781;42.272;22.658;2023-07-30T05:43:08;94401.16;;;23.91;nan
7480;BME280;3781;42.272;22.658;2023-07-30T05:45:35;94403.78;;;23.55;nan
7480;BME280;3781;42.272;22.658;2023-07-30T05:48:02;94394.72;;;23.38;nan
7480;BME280;3781;42.272;22.658;2023-07-30T05:50:28;94406.16;;;23.32;nan
7480;BME280;3781;42.272;22.658;2023-07-30T05:52:55;94400.09;;;23.25;nan
7480;BME280;3781;42.272;22.658;2023-07-30T05:55:22;94362.44;;;22.98;nan
7480;BME280;3781;42.272;22.658;2023-07-30T05:57:50;94380.44;;;22.90;nan
7480;BME280;3781;42.272;22.658;2023-07-30T06:00:18;94385.13;;;22.88;nan
7480;BME280;3781;42.272;22.658;2023-07-30T06:02:45;94391.75;;;22.97;nan
7480;BME280;3781;42.272;22.658;2023-07-30T06:05:12;94399.13;;;22.95;nan
7480;BME280;3781;42.272;22.658;2023-07-30T06:07:39;94391.75;;;22.97;nan
7480;BME280;3781;42.272;22.658;2023-07-30T06:10:06;94405.09;;;22.84;nan
7480;BME280;3781;42.272;22.658;2023-07-30T06:12:33;94377.28;;;22.75;nan
7480;BME280;3781;42.272;22.658;2023-07-30T06:15:01;94391.03;;;22.90;nan
7480;BME280;3781;42.272;22.658;2023-07-30T06:17:28;94388.69;;;23.00;nan
7480;BME280;3781;42.272;22.658;2023-07-30T06:19:55;94384.38;;;23.05;nan
7480;BME280;3781;42.272;22.658;2023-07-30T06:22:22;94294.34;;;22.43;nan
7480;BME280;3781;42.272;22.658;2023-07-30T06:24:49;94308.84;;;22.72;nan
7480;BME280;3781;42.272;22.658;2023-07-30T06:27:15;94384.84;;;23.27;nan
7480;BME280;3781;42.272;22.658;2023-07-30T06:29:42;94380.88;;;23.36;nan
7480;BME280;3781;42.272;22.658;2023-07-30T06:32:10;94392.41;;;23.48;nan
7480;BME280;3781;42.272;22.658;2023-07-30T06:34:37;94292.47;;;23.06;nan
7480;BME280;3781;42.272;22.658;2023-07-30T06:37:04;94325.69;;;23.33;nan
7480;BME280;3781;42.272;22.658;2023-07-30T06:39:30;94329.75;;;23.36;nan
7480;BME280;3781;42.272;22.658;2023-07-30T06:41:57;94373.13;;;23.77;nan
7480;BME280;3781;42.272;22.658;2023-07-30T06:44:24;94387.66;;;23.93;nan
7480;BME280;3781;42.272;22.658;2023-07-30T06:46:51;94340.00;;;23.68;nan
7480;BME280;3781;42.272;22.658;2023-07-30T06:49:19;94350.75;;;23.73;nan
7480;BME280;3781;42.272;22.658;2023-07-30T06:51:47;94346.03;;;23.75;nan
7480;BME280;3781;42.272;22.658;2023-07-30T06:54:13;94347.81;;;23.81;nan
7480;BME280;3781;42.272;22.658;2023-07-30T06:56:40;94382.47;;;24.23;nan
7480;BME280;3781;42.272;22.658;2023-07-30T06:59:07;94331.97;;;24.11;nan
7480;BME280;3781;42.272;22.658;2023-07-30T07:01:33;94377.09;;;24.59;nan
7480;BME280;3781;42.272;22.658;2023-07-30T07:04:00;94348.81;;;24.64;nan
7480;BME280;3781;42.272;22.658;2023-07-30T07:06:28;94365.22;;;24.91;nan
7480;BME280;3781;42.272;22.658;2023-07-30T07:08:55;94348.72;;;24.71;nan
7480;BME280;3781;42.272;22.658;2023-07-30T07:11:22;94366.13;;;24.85;nan
7480;BME280;3781;42.272;22.658;2023-07-30T07:13:49;94355.44;;;25.03;nan
7480;BME280;3781;42.272;22.658;2023-07-30T07:16:15;94362.94;;;25.29;nan
7480;BME280;3781;42.272;22.658;2023-07-30T07:18:42;94354.66;;;25.49;nan
7480;BME280;3781;42.272;22.658;2023-07-30T07:21:10;94356.53;;;25.72;nan
7480;BME280;3781;42.272;22.658;2023-07-30T07:23:38;94357.91;;;25.86;nan
7480;BME280;3781;42.272;22.658;2023-07-30T07:26:05;94353.41;;;25.75;nan
7480;BME280;3781;42.272;22.658;2023-07-30T07:28:31;94358.25;;;25.89;nan
7480;BME280;3781;42.272;22.658;2023-07-30T07:30:58;94353.00;;;26.06;nan
7480;BME280;3781;42.272;22.658;2023-07-30T07:33:31;94332.53;;;26.06;nan
7480;BME280;3781;42.272;22.658;2023-07-30T07:36:04;94348.97;;;26.43;nan
7480;BME280;3781;42.272;22.658;2023-07-30T07:38:31;94294.88;;;26.26;nan
7480;BME280;3781;42.272;22.658;2023-07-30T07:41:03;94344.34;;;26.78;nan
7480;BME280;3781;42.272;22.658;2023-07-30T07:43:29;94314.72;;;26.75;nan
7480;BME280;3781;42.272;22.658;2023-07-30T07:45:56;94342.50;;;27.12;nan
7480;BME280;3781;42.272;22.658;2023-07-30T07:48:23;94279.34;;;26.96;nan
7480;BME280;3781;42.272;22.658;2023-07-30T07:50:50;94332.44;;;27.47;nan
7480;BME280;3781;42.272;22.658;2023-07-30T07:53:16;94332.75;;;27.68;nan
7480;BME280;3781;42.272;22.658;2023-07-30T07:55:43;94332.00;;;27.72;nan
7480;BME280;3781;42.272;22.658;2023-07-30T07:58:11;94330.41;;;27.54;nan
7480;BME280;3781;42.272;22.658;2023-07-30T08:00:38;94322.81;;;27.63;nan
7480;BME280;3781;42.272;22.658;2023-07-30T08:03:04;94221.97;;;27.10;nan
7480;BME280;3781;42.272;22.658;2023-07-30T08:05:31;94324.50;;;28.07;nan
7480;BME280;3781;42.272;22.658;2023-07-30T08:07:58;94333.38;;;28.34;nan
7480;BME280;3781;42.272;22.658;2023-07-30T08:10:25;94322.06;;;28.49;nan
7480;BME280;3781;42.272;22.658;2023-07-30T08:12:51;94293.44;;;28.50;nan
7480;BME280;3781;42.272;22.658;2023-07-30T08:15:20;94330.78;;;28.88;nan
7480;BME280;3781;42.272;22.658;2023-07-30T08:17:46;94323.50;;;29.10;nan
7480;BME280;3781;42.272;22.658;2023-07-30T08:20:13;94315.91;;;29.02;nan
7480;BME280;3781;42.272;22.658;2023-07-30T08:22:40;94325.91;;;29.12;nan
7480;BME280;3781;42.272;22.658;2023-07-30T08:25:07;94316.72;;;29.29;nan
7480;BME280;3781;42.272;22.658;2023-07-30T08:27:34;94315.19;;;29.38;nan
7480;BME280;3781;42.272;22.658;2023-07-30T08:30:00;94311.78;;;29.53;nan
7480;BME280;3781;42.272;22.658;2023-07-30T08:32:28;94311.03;;;29.62;nan
7480;BME280;3781;42.272;22.658;2023-07-30T08:34:55;94311.06;;;29.67;nan
7480;BME280;3781;42.272;22.658;2023-07-30T08:37:22;94303.69;;;29.85;nan
7480;BME280;3781;42.272;22.658;2023-07-30T08:39:49;94297.34;;;29.96;nan
7480;BME280;3781;42.272;22.658;2023-07-30T08:42:16;94309.25;;;30.25;nan
7480;BME280;3781;42.272;22.658;2023-07-30T08:44:42;94274.16;;;30.26;nan
7480;BME280;3781;42.272;22.658;2023-07-30T08:47:09;94295.59;;;30.26;nan
7480;BME280;3781;42.272;22.658;2023-07-30T08:49:37;94301.81;;;30.37;nan
7480;BME280;3781;42.272;22.658;2023-07-30T08:52:08;94289.84;;;30.70;nan
7480;BME280;3781;42.272;22.658;2023-07-30T08:54:36;94266.56;;;30.90;nan
7480;BME280;3781;42.272;22.658;2023-07-30T08:57:04;94294.47;;;31.40;nan
7480;BME280;3781;42.272;22.658;2023-07-30T08:59:42;94260.63;;;31.69;nan
7480;BME280;3781;42.272;22.658;2023-07-30T09:02:18;94269.00;;;32.31;nan
7480;BME280;3781;42.272;22.658;2023-07-30T09:04:53;94293.81;;;33.16;nan
7480;BME280;3781;42.272;22.658;2023-07-30T09:07:23;94295.72;;;33.78;nan
7480;BME280;3781;42.272;22.658;2023-07-30T09:09:51;94285.22;;;34.47;nan
7480;BME280;3781;42.272;22.658;2023-07-30T09:12:17;94292.09;;;34.96;nan
7480;BME280;3781;42.272;22.658;2023-07-30T09:14:50;94310.25;;;35.78;nan
7480;BME280;3781;42.272;22.658;2023-07-30T09:17:17;94276.19;;;36.23;nan
7480;BME280;3781;42.272;22.658;2023-07-30T09:19:44;94293.03;;;36.47;nan
7480;BME280;3781;42.272;22.658;2023-07-30T09:22:19;94296.47;;;36.88;nan
7480;BME280;3781;42.272;22.658;2023-07-30T09:24:46;94296.66;;;36.92;nan
7480;BME280;3781;42.272;22.658;2023-07-30T09:27:13;94276.34;;;37.17;nan
7480;BME280;3781;42.272;22.658;2023-07-30T09:29:50;94285.09;;;37.58;nan
7480;BME280;3781;42.272;22.658;2023-07-30T09:32:18;94287.41;;;37.95;nan
7480;BME280;3781;42.272;22.658;2023-07-30T09:34:45;94270.22;;;38.08;nan
7480;BME280;3781;42.272;22.658;2023-07-30T09:37:13;94285.94;;;38.28;nan
7480;BME280;3781;42.272;22.658;2023-07-30T09:39:40;94283.44;;;37.79;nan
7480;BME280;3781;42.272;22.658;2023-07-30T09:42:07;94264.88;;;37.64;nan
7480;BME280;3781;42.272;22.658;2023-07-30T09:44:36;94264.25;;;37.98;nan
7480;BME280;3781;42.272;22.658;2023-07-30T09:47:04;94265.44;;;38.53;nan
7480;BME280;3781;42.272;22.658;2023-07-30T09:49:31;94263.97;;;38.38;nan
7480;BME280;3781;42.272;22.658;2023-07-30T09:51:59;94262.53;;;38.32;nan
7480;BME280;3781;42.272;22.658;2023-07-30T09:54:28;94263.97;;;38.38;nan
7480;BME280;3781;42.272;22.658;2023-07-30T09:56:55;94239.25;;;38.09;nan
7480;BME280;3781;42.272;22.658;2023-07-30T09:59:22;94225.25;;;37.01;nan
7480;BME280;3781;42.272;22.658;2023-07-30T10:01:50;94196.19;;;37.38;nan
7480;BME280;3781;42.272;22.658;2023-07-30T10:04:19;94229.06;;;37.75;nan
7480;BME280;3781;42.272;22.658;2023-07-30T10:06:51;94218.69;;;37.25;nan
7480;BME280;3781;42.272;22.658;2023-07-30T10:09:20;94228.13;;;37.27;nan
7480;BME280;3781;42.272;22.658;2023-07-30T10:11:51;94224.88;;;37.39;nan
7480;BME280;3781;42.272;22.658;2023-07-30T10:14:22;94226.66;;;36.85;nan
7480;BME280;3781;42.272;22.658;2023-07-30T10:16:53;94175.22;;;36.63;nan
7480;BME280;3781;42.272;22.658;2023-07-30T10:19:25;94180.13;;;37.50;nan
7480;BME280;3781;42.272;22.658;2023-07-30T10:21:53;94216.09;;;37.95;nan
7480;BME280;3781;42.272;22.658;2023-07-30T10:24:25;94178.97;;;38.12;nan
7480;BME280;3781;42.272;22.658;2023-07-30T10:26:53;94184.63;;;38.50;nan
7480;BME280;3781;42.272;22.658;2023-07-30T10:29:23;94202.03;;;38.58;nan
7480;BME280;3781;42.272;22.658;2023-07-30T10:31:52;94166.28;;;38.56;nan
7480;BME280;3781;42.272;22.658;2023-07-30T10:34:19;94155.75;;;38.54;nan
7480;BME280;3781;42.272;22.658;2023-07-30T10:36:48;94191.88;;;38.89;nan
7480;BME280;3781;42.272;22.658;2023-07-30T10:39:16;94183.03;;;38.32;nan
7480;BME280;3781;42.272;22.658;2023-07-30T10:41:44;94177.59;;;37.84;nan
7480;BME280;3781;42.272;22.658;2023-07-30T10:44:22;94176.22;;;37.95;nan
7480;BME280;3781;42.272;22.658;2023-07-30T10:46:49;94176.81;;;38.48;nan
7480;BME280;3781;42.272;22.658;2023-07-30T10:49:16;94146.03;;;37.88;nan
7480;BME280;3781;42.272;22.658;2023-07-30T10:51:42;94168.81;;;36.23;nan
7480;BME280;3781;42.272;22.658;2023-07-30T10:54:09;94156.50;;;35.63;nan
7480;BME280;3781;42.272;22.658;2023-07-30T10:56:39;94162.47;;;35.46;nan
7480;BME280;3781;42.272;22.658;2023-07-30T10:59:11;94138.13;;;34.87;nan
7480;BME280;3781;42.272;22.658;2023-07-30T11:01:40;94127.84;;;35.21;nan
7480;BME280;3781;42.272;22.658;2023-07-30T11:04:09;94114.72;;;34.69;nan
7480;BME280;3781;42.272;22.658;2023-07-30T11:06:36;94126.66;;;34.63;nan
7480;BME280;3781;42.272;22.658;2023-07-30T11:09:03;94138.56;;;34.62;nan
7480;BME280;3781;42.272;22.658;2023-07-30T11:11:31;94130.06;;;34.50;nan
7480;BME280;3781;42.272;22.658;2023-07-30T11:13:58;94128.44;;;35.18;nan
7480;BME280;3781;42.272;22.658;2023-07-30T11:16:27;94060.22;;;35.13;nan
7480;BME280;3781;42.272;22.658;2023-07-30T11:18:55;94095.34;;;34.80;nan
7480;BME280;3781;42.272;22.658;2023-07-30T11:21:26;94112.16;;;34.91;nan
7480;BME280;3781;42.272;22.658;2023-07-30T11:23:52;94113.47;;;35.53;nan
7480;BME280;3781;42.272;22.658;2023-07-30T11:26:19;94116.97;;;36.44;nan
7480;BME280;3781;42.272;22.658;2023-07-30T11:28:46;94118.28;;;35.97;nan
7480;BME280;3781;42.272;22.658;2023-07-30T11:31:15;94112.03;;;36.10;nan
7480;BME280;3781;42.272;22.658;2023-07-30T11:33:43;94083.84;;;35.62;nan
7480;BME280;3781;42.272;22.658;2023-07-30T11:36:14;94094.25;;;35.27;nan
7480;BME280;3781;42.272;22.658;2023-07-30T11:38:42;94071.03;;;35.26;nan
7480;BME280;3781;42.272;22.658;2023-07-30T11:41:10;94094.66;;;35.34;nan
7480;BME280;3781;42.272;22.658;2023-07-30T11:43:39;94086.59;;;35.02;nan
7480;BME280;3781;42.272;22.658;2023-07-30T11:46:10;94083.03;;;35.34;nan
7480;BME280;3781;42.272;22.658;2023-07-30T11:48:38;94065.22;;;35.74;nan
7480;BME280;3781;42.272;22.658;2023-07-30T11:51:05;94070.59;;;36.59;nan
7480;BME280;3781;42.272;22.658;2023-07-30T11:53:46;94075.81;;;35.84;nan
7480;BME280;3781;42.272;22.658;2023-07-30T11:56:16;94078.69;;;36.14;nan
7480;BME280;3781;42.272;22.658;2023-07-30T11:58:43;94082.53;;;36.22;nan
7480;BME280;3781;42.272;22.658;2023-07-30T12:01:10;94045.72;;;35.63;nan
7480;BME280;3781;42.272;22.658;2023-07-30T12:03:37;94072.53;;;35.32;nan
7480;BME280;3781;42.272;22.658;2023-07-30T12:06:05;94024.78;;;34.87;nan
7480;BME280;3781;42.272;22.658;2023-07-30T12:08:33;94056.00;;;35.75;nan
7480;BME280;3781;42.272;22.658;2023-07-30T12:11:04;94063.88;;;36.78;nan
7480;BME280;3781;42.272;22.658;2023-07-30T12:13:34;94064.72;;;37.49;nan
7480;BME280;3781;42.272;22.658;2023-07-30T12:16:19;94045.19;;;37.30;nan
7480;BME280;3781;42.272;22.658;2023-07-30T12:18:51;94055.75;;;35.63;nan
7480;BME280;3781;42.272;22.658;2023-07-30T12:21:20;94007.78;;;34.08;nan
7480;BME280;3781;42.272;22.658;2023-07-30T12:23:47;94030.38;;;34.77;nan
7480;BME280;3781;42.272;22.658;2023-07-30T12:26:18;94039.94;;;35.92;nan
7480;BME280;3781;42.272;22.658;2023-07-30T12:28:45;93961.19;;;35.63;nan
7480;BME280;3781;42.272;22.658;2023-07-30T12:31:12;93987.41;;;35.35;nan
7480;BME280;3781;42.272;22.658;2023-07-30T12:33:41;94043.06;;;35.85;nan
7480;BME280;3781;42.272;22.658;2023-07-30T12:36:08;94044.09;;;36.47;nan
7480;BME280;3781;42.272;22.658;2023-07-30T12:38:34;94025.31;;;36.73;nan
7480;BME280;3781;42.272;22.658;2023-07-30T12:41:04;94019.84;;;36.64;nan
7480;BME280;3781;42.272;22.658;2023-07-30T12:43:32;94008.75;;;36.44;nan
7480;BME280;3781;42.272;22.658;2023-07-30T12:45:59;93861.16;;;35.85;nan
7480;BME280;3781;42.272;22.658;2023-07-30T12:48:26;94022.97;;;37.11;nan
7480;BME280;3781;42.272;22.658;2023-07-30T12:50:53;93996.91;;;38.05;nan
7480;BME280;3781;42.272;22.658;2023-07-30T12:53:20;93937.03;;;37.59;nan
7480;BME280;3781;42.272;22.658;2023-07-30T12:55:46;93918.34;;;36.75;nan
7480;BME280;3781;42.272;22.658;2023-07-30T12:58:14;93941.44;;;36.81;nan
7480;BME280;3781;42.272;22.658;2023-07-30T13:00:42;93966.66;;;35.93;nan
7480;BME280;3781;42.272;22.658;2023-07-30T13:03:08;93978.56;;;35.56;nan
7480;BME280;3781;42.272;22.658;2023-07-30T13:05:36;93980.34;;;36.63;nan
7480;BME280;3781;42.272;22.658;2023-07-30T13:08:03;93973.38;;;36.40;nan
7480;BME280;3781;42.272;22.658;2023-07-30T13:10:30;93956.56;;;36.82;nan
7480;BME280;3781;42.272;22.658;2023-07-30T13:12:57;93987.63;;;38.49;nan
7480;BME280;3781;42.272;22.658;2023-07-30T13:15:23;94001.53;;;39.02;nan
7480;BME280;3781;42.272;22.658;2023-07-30T13:17:51;94004.75;;;39.71;nan
7480;BME280;3781;42.272;22.658;2023-07-30T13:20:18;94002.50;;;40.68;nan
7480;BME280;3781;42.272;22.658;2023-07-30T13:22:45;94004.19;;;40.93;nan
7480;BME280;3781;42.272;22.658;2023-07-30T13:25:12;93952.78;;;41.40;nan
7480;BME280;3781;42.272;22.658;2023-07-30T13:27:38;93994.41;;;42.01;nan
7480;BME280;3781;42.272;22.658;2023-07-30T13:30:06;93993.09;;;41.83;nan
7480;BME280;3781;42.272;22.658;2023-07-30T13:32:33;93986.50;;;41.23;nan
7480;BME280;3781;42.272;22.658;2023-07-30T13:35:01;93994.25;;;40.44;nan